Time;durP1;ratioP1;P1;durP2;ratioP2;P2;SDS_P1;SDS_P2;PMS_P1;PMS_P2;Temp;Humidity;BMP_temperature;BMP_pressure;BME280_temperature;BME280_humidity;BME280_pressure;Samples;Min_cycle;Max_cycle;Signal;HPM_P1;HPM_P2
2023/06/01 05:03:29;;;;;;;7.25;3.10;;;15.50;90.50;;;;;;4955815;23;20349;-73
2023/06/01 05:05:55;;;;;;;5.75;2.75;;;15.70;90.50;;;;;;4896128;29;20271;-74
2023/06/01 05:08:22;;;;;;;6.72;2.85;;;15.80;90.50;;;;;;4890441;29;20064;-73
2023/06/01 05:10:47;;;;;;;6.18;2.90;;;15.80;90.40;;;;;;4872306;29;20021;-75
2023/06/01 05:13:13;;;;;;;5.93;3.20;;;15.90;90.10;;;;;;4872351;29;20033;-74
2023/06/01 05:15:39;;;;;;;8.65;4.18;;;16.00;88.80;;;;;;4871712;29;20036;-72
2023/06/01 05:18:05;;;;;;;8.35;3.88;;;16.10;90.20;;;;;;4891307;29;20318;-72
2023/06/01 05:20:31;;;;;;;8.30;3.72;;;16.10;90.20;;;;;;4890296;29;20318;-74
2023/06/01 05:22:58;;;;;;;10.03;5.57;;;16.20;90.30;;;;;;4890837;29;20036;-73
2023/06/01 05:25:24;;;;;;;9.77;5.05;;;16.20;90.40;;;;;;4890217;29;20028;-72
2023/06/01 05:27:50;;;;;;;5.35;3.17;;;16.30;90.20;;;;;;4890746;29;20036;-75
2023/06/01 05:30:16;;;;;;;9.63;3.00;;;16.40;89.90;;;;;;4890750;29;20017;-72
2023/06/01 05:32:44;;;;;;;8.98;2.95;;;16.40;90.00;;;;;;4890014;29;20296;-74
2023/06/01 05:35:15;;;;;;;10.60;3.58;;;16.60;89.30;;;;;;4887307;29;20303;-74
2023/06/01 05:37:41;;;;;;;9.35;4.00;;;16.60;89.70;;;;;;4856153;29;20341;-73
2023/06/01 05:40:08;;;;;;;8.18;3.38;;;16.70;88.90;;;;;;4872169;29;20055;-74
2023/06/01 05:42:35;;;;;;;8.90;3.55;;;16.80;89.80;;;;;;4871457;29;20044;-73
2023/06/01 05:45:01;;;;;;;6.30;2.85;;;16.80;89.10;;;;;;4872213;29;20029;-74
2023/06/01 05:47:27;;;;;;;5.50;2.45;;;16.80;89.00;;;;;;4887812;29;20218;-73
2023/06/01 05:49:53;;;;;;;5.95;2.17;;;16.70;92.40;;;;;;4872038;29;20323;-72
2023/06/01 05:52:19;;;;;;;8.20;2.80;;;16.90;90.10;;;;;;4856572;29;20028;-74
2023/06/01 05:54:45;;;;;;;7.35;2.72;;;16.90;88.40;;;;;;4888205;29;20036;-76
2023/06/01 05:57:10;;;;;;;13.15;3.10;;;17.10;87.20;;;;;;4871943;29;20203;-74
2023/06/01 05:59:36;;;;;;;8.55;3.45;;;17.30;87.80;;;;;;4888082;29;20044;-75
2023/06/01 06:02:02;;;;;;;13.90;3.60;;;17.30;88.70;;;;;;4871730;29;20076;-72
2023/06/01 06:04:28;;;;;;;9.32;3.03;;;17.50;88.50;;;;;;4887694;29;20073;-73
2023/06/01 06:06:54;;;;;;;5.90;2.70;;;17.40;88.00;;;;;;4888259;29;20337;-75
2023/06/01 06:09:20;;;;;;;10.05;3.35;;;17.60;87.50;;;;;;4871651;29;20075;-73
2023/06/01 06:11:45;;;;;;;7.20;3.05;;;17.70;87.80;;;;;;4887984;29;20028;-76
2023/06/01 06:14:13;;;;;;;8.32;3.28;;;17.70;88.20;;;;;;4888126;29;20054;-73
2023/06/01 06:16:39;;;;;;;7.88;2.90;;;17.80;88.10;;;;;;4887871;29;20064;-73
2023/06/01 06:19:05;;;;;;;7.40;3.10;;;17.90;87.40;;;;;;4891323;29;20025;-74
2023/06/01 06:21:31;;;;;;;7.57;3.20;;;17.90;87.50;;;;;;4891254;29;20092;-74
2023/06/01 06:23:58;;;;;;;7.78;2.88;;;18.10;87.40;;;;;;4891810;29;20156;-72
2023/06/01 06:26:26;;;;;;;7.20;3.00;;;18.10;86.80;;;;;;4891538;29;20036;-74
2023/06/01 06:28:52;;;;;;;8.50;3.22;;;18.20;86.30;;;;;;4891356;29;20100;-74
2023/06/01 06:31:17;;;;;;;11.90;3.83;;;18.30;86.20;;;;;;4891597;29;20056;-73
2023/06/01 06:33:43;;;;;;;10.35;3.67;;;18.30;86.30;;;;;;4890802;29;20081;-73
2023/06/01 06:36:09;;;;;;;8.82;3.42;;;18.50;86.30;;;;;;4893658;29;20040;-72
2023/06/01 06:38:35;;;;;;;13.90;2.92;;;18.70;86.00;;;;;;4909672;29;20041;-73
2023/06/01 06:41:00;;;;;;;9.15;2.80;;;18.90;83.80;;;;;;4909871;29;20036;-73
2023/06/01 06:43:26;;;;;;;6.63;3.15;;;18.80;79.30;;;;;;4909666;29;20047;-73
2023/06/01 06:45:52;;;;;;;8.57;3.38;;;18.80;79.50;;;;;;4910190;29;20064;-73
2023/06/01 06:48:17;;;;;;;7.22;2.58;;;19.00;80.00;;;;;;4909856;29;20361;-74
2023/06/01 06:50:44;;;;;;;6.72;2.67;;;19.10;79.10;;;;;;4909268;29;20222;-72
2023/06/01 06:53:11;;;;;;;8.40;3.40;;;19.30;78.90;;;;;;4909968;29;20036;-73
2023/06/01 06:55:37;;;;;;;8.00;2.63;;;19.40;78.30;;;;;;4909393;29;20036;-74
2023/06/01 06:58:02;;;;;;;8.60;2.60;;;19.40;77.90;;;;;;4910005;29;20221;-73
2023/06/01 07:00:28;;;;;;;7.55;2.67;;;19.50;77.90;;;;;;4909481;29;20032;-72
2023/06/01 07:02:55;;;;;;;6.05;2.78;;;19.50;77.40;;;;;;4909650;29;20024;-74
2023/06/01 07:05:20;;;;;;;8.77;2.75;;;19.70;76.70;;;;;;4909467;29;20052;-72
2023/06/01 07:07:46;;;;;;;5.75;2.60;;;19.80;76.20;;;;;;4909262;29;20063;-74
2023/06/01 07:10:12;;;;;;;15.13;9.25;;;19.80;76.00;;;;;;4909708;29;20238;-72
2023/06/01 07:12:38;;;;;;;13.10;4.43;;;19.90;76.10;;;;;;4907999;29;20032;-72
2023/06/01 07:15:05;;;;;;;6.60;2.70;;;20.00;76.50;;;;;;4909727;29;20308;-72
2023/06/01 07:17:30;;;;;;;8.75;2.97;;;20.20;76.60;;;;;;4908930;29;20221;-72
2023/06/01 07:19:59;;;;;;;6.93;2.78;;;20.20;76.20;;;;;;4909228;29;20028;-72
2023/06/01 07:22:25;;;;;;;9.00;3.17;;;20.30;75.50;;;;;;4909494;29;20027;-73
2023/06/01 07:24:51;;;;;;;5.75;2.83;;;20.50;76.00;;;;;;4908911;29;20024;-72
2023/06/01 07:27:17;;;;;;;6.78;2.30;;;20.50;74.90;;;;;;4909263;29;20043;-74
2023/06/01 07:29:44;;;;;;;6.22;2.78;;;20.50;75.40;;;;;;4908199;29;20043;-74
2023/06/01 07:32:10;;;;;;;5.72;2.83;;;20.60;74.50;;;;;;4909082;29;20047;-74
2023/06/01 07:34:36;;;;;;;6.05;2.97;;;20.50;73.50;;;;;;4908555;29;20307;-74
2023/06/01 07:37:03;;;;;;;7.68;3.03;;;20.50;73.00;;;;;;4909005;29;20100;-73
2023/06/01 07:39:30;;;;;;;8.18;2.75;;;20.60;73.40;;;;;;4908686;29;20108;-74
2023/06/01 07:41:56;;;;;;;6.47;2.72;;;20.80;73.40;;;;;;4908894;29;20028;-74
2023/06/01 07:44:22;;;;;;;6.45;3.03;;;20.70;73.70;;;;;;4908756;29;20040;-72
2023/06/01 07:46:48;;;;;;;8.63;2.83;;;20.90;73.30;;;;;;4908713;29;20039;-73
2023/06/01 07:49:15;;;;;;;6.85;2.85;;;20.90;73.50;;;;;;4909049;29;20068;-72
2023/06/01 07:51:44;;;;;;;5.90;2.90;;;21.00;74.00;;;;;;4908330;29;20043;-73
2023/06/01 07:54:10;;;;;;;13.98;9.13;;;21.10;74.00;;;;;;4908941;29;20027;-72
2023/06/01 07:56:36;;;;;;;11.45;3.65;;;21.10;75.90;;;;;;4907996;29;20036;-72
2023/06/01 07:59:04;;;;;;;8.18;3.17;;;21.20;78.00;;;;;;4908814;29;20055;-73
2023/06/01 08:01:30;;;;;;;;;;;21.10;64.40;;;;;;4908739;29;20044;-70
2023/06/01 08:03:56;;;;;;;10.13;3.20;;;21.30;65.00;;;;;;4907977;29;20155;-71
2023/06/01 08:06:23;;;;;;;6.20;3.00;;;21.40;64.20;;;;;;4908185;29;20219;-73
2023/06/01 08:08:49;;;;;;;8.10;2.75;;;21.60;64.50;;;;;;4907855;29;20051;-72
2023/06/01 08:11:15;;;;;;;6.13;3.08;;;21.70;64.00;;;;;;4908165;29;20095;-72
2023/06/01 08:13:41;;;;;;;5.88;2.88;;;21.80;64.00;;;;;;4890942;29;20063;-74
2023/06/01 08:16:08;;;;;;;7.93;2.92;;;21.70;63.20;;;;;;4908365;29;20024;-74
2023/06/01 08:18:33;;;;;;;7.38;3.05;;;21.80;63.20;;;;;;4907924;29;20056;-74
2023/06/01 08:21:02;;;;;;;9.77;3.20;;;21.80;63.30;;;;;;4908414;29;20091;-73
2023/06/01 08:23:27;;;;;;;8.43;3.50;;;22.00;63.80;;;;;;4907997;29;20036;-73
2023/06/01 08:25:53;;;;;;;8.63;3.55;;;22.10;63.50;;;;;;4907812;29;20044;-73
2023/06/01 08:28:19;;;;;;;5.55;2.90;;;22.30;63.00;;;;;;4908233;29;20131;-75
2023/06/01 08:30:45;;;;;;;6.13;3.40;;;22.30;62.10;;;;;;4907345;29;20203;-73
2023/06/01 08:33:10;;;;;;;7.43;3.10;;;22.30;62.60;;;;;;4908151;29;20175;-72
2023/06/01 08:35:36;;;;;;;6.20;3.45;;;22.30;61.50;;;;;;4907299;29;20039;-72
2023/06/01 08:38:02;;;;;;;7.10;3.40;;;22.40;62.20;;;;;;4908005;29;20051;-73
2023/06/01 08:40:31;;;;;;;7.13;3.13;;;22.50;62.00;;;;;;4907322;29;20052;-72
2023/06/01 08:43:19;;;;;;;7.80;2.95;;;22.50;61.20;;;;;;4907511;29;20290;-72
2023/06/01 08:45:47;;;;;;;5.60;3.47;;;22.50;61.60;;;;;;4907585;29;20085;-72
2023/06/01 08:48:17;;;;;;;7.03;3.42;;;22.70;61.70;;;;;;4907779;29;20272;-74
2023/06/01 08:50:47;;;;;;;7.20;3.08;;;22.60;61.30;;;;;;4907343;29;20032;-73
2023/06/01 08:53:13;;;;;;;8.13;3.28;;;22.60;62.00;;;;;;4891281;29;20103;-75
2023/06/01 08:55:39;;;;;;;7.50;3.45;;;22.60;62.30;;;;;;4907342;29;20160;-72
2023/06/01 08:58:05;;;;;;;9.27;3.63;;;22.70;61.80;;;;;;4907535;29;20058;-73
2023/06/01 09:00:32;;;;;;;17.20;9.52;;;22.60;61.70;;;;;;4907921;29;20028;-71
2023/06/01 09:02:59;;;;;;;7.75;4.00;;;22.70;62.20;;;;;;4907080;29;20042;-73
2023/06/01 09:05:26;;;;;;;5.63;3.10;;;23.00;62.60;;;;;;4907341;29;20063;-72
2023/06/01 09:07:51;;;;;;;6.40;3.35;;;23.00;62.00;;;;;;4906840;29;20037;-74
2023/06/01 09:10:23;;;;;;;6.30;3.00;;;23.00;61.20;;;;;;4907382;29;20313;-72
2023/06/01 09:12:53;;;;;;;7.85;3.42;;;23.10;61.20;;;;;;4907212;29;20104;-75
2023/06/01 09:15:21;;;;;;;6.43;3.13;;;23.20;63.80;;;;;;4907597;29;20028;-75
2023/06/01 09:17:52;;;;;;;5.97;3.22;;;23.10;61.00;;;;;;4906770;29;20036;-74
2023/06/01 09:20:28;;;;;;;7.88;3.55;;;23.20;61.30;;;;;;4907202;29;20341;-74
2023/06/01 09:22:55;;;;;;;8.20;4.03;;;23.40;62.10;;;;;;4906929;29;20032;-73
2023/06/01 09:25:28;;;;;;;6.35;3.53;;;23.50;61.00;;;;;;4907582;29;20043;-75
2023/06/01 09:27:55;;;;;;;7.05;4.07;;;23.50;60.50;;;;;;4906776;29;20045;-73
2023/06/01 09:30:23;;;;;;;6.00;3.20;;;23.60;61.10;;;;;;4907550;29;20044;-75
2023/06/01 09:32:53;;;;;;;7.95;3.30;;;23.70;61.40;;;;;;4906858;29;20055;-73
2023/06/01 09:35:37;;;;;;;8.68;3.33;;;23.90;60.50;;;;;;4907186;29;20036;-75
2023/06/01 09:38:05;;;;;;;8.88;3.75;;;24.00;60.60;;;;;;4907185;29;20033;-73
2023/06/01 09:40:32;;;;;;;6.07;3.70;;;24.00;60.80;;;;;;4890633;29;20183;-74
2023/06/01 09:42:58;;;;;;;7.47;3.33;;;24.20;60.50;;;;;;4906839;29;20386;-73
2023/06/01 09:45:24;;;;;;;9.90;4.05;;;24.40;60.20;;;;;;4907054;29;20036;-74
2023/06/01 09:47:51;;;;;;;6.75;3.65;;;24.50;60.00;;;;;;4906775;29;20032;-73
2023/06/01 09:50:38;;;;;;;8.63;3.50;;;24.60;59.80;;;;;;4907431;29;20044;-74
2023/06/01 09:53:05;;;;;;;8.40;3.67;;;24.60;59.80;;;;;;4910492;29;20039;-73
2023/06/01 09:55:31;;;;;;;10.35;3.63;;;24.60;59.40;;;;;;4911065;29;20314;-75
2023/06/01 09:58:21;;;;;;;6.25;3.25;;;24.70;59.40;;;;;;4910414;29;20515;-74
2023/06/01 10:00:50;;;;;;;7.80;3.45;;;24.80;60.00;;;;;;4910156;29;20040;-73
2023/06/01 10:03:17;;;;;;;;;;;24.90;59.80;;;;;;4894469;29;20032;-73
2023/06/01 10:05:44;;;;;;;6.10;3.58;;;24.90;59.20;;;;;;4910452;29;19915;-73
2023/06/01 10:08:14;;;;;;;9.75;3.65;;;25.00;59.40;;;;;;4910529;29;20331;-75
2023/06/01 10:10:43;;;;;;;9.80;3.70;;;25.20;59.90;;;;;;4910353;29;20045;-73
2023/06/01 10:13:10;;;;;;;5.40;3.20;;;25.30;59.30;;;;;;4910506;29;20064;-74
2023/06/01 10:15:36;;;;;;;8.75;3.80;;;25.30;58.80;;;;;;4910599;29;20017;-73
2023/06/01 10:18:03;;;;;;;5.47;3.13;;;25.40;59.10;;;;;;4909969;29;20025;-74
2023/06/01 10:20:35;;;;;;;7.77;3.67;;;25.50;58.40;;;;;;4910660;29;20041;-73
2023/06/01 10:23:02;;;;;;;5.68;3.20;;;25.70;61.30;;;;;;4909846;29;20636;-72
2023/06/01 10:25:44;;;;;;;12.75;5.50;;;25.80;58.50;;;;;;4893605;29;20365;-71
2023/06/01 10:28:12;;;;;;;6.30;3.63;;;25.90;57.50;;;;;;4910646;29;20036;-72
2023/06/01 10:30:37;;;;;;;6.25;3.10;;;26.10;59.30;;;;;;4910410;29;20264;-71
2023/06/01 10:33:03;;;;;;;4.88;3.22;;;26.20;57.40;;;;;;4909623;29;20084;-73
2023/06/01 10:35:29;;;;;;;7.90;3.15;;;26.30;56.50;;;;;;4893389;29;20024;-73
2023/06/01 10:38:22;;;;;;;8.90;3.58;;;26.20;56.10;;;;;;4909716;29;20040;-72
2023/06/01 10:40:48;;;;;;;6.75;3.25;;;26.00;56.50;;;;;;4906454;29;20041;-71
2023/06/01 10:43:35;;;;;;;7.85;3.45;;;26.10;56.60;;;;;;4910510;29;20163;-72
2023/06/01 10:46:01;;;;;;;6.20;3.42;;;26.20;56.80;;;;;;4909421;29;20230;-71
2023/06/01 10:48:55;;;;;;;6.65;3.40;;;26.40;56.70;;;;;;4910128;29;20036;-72
2023/06/01 10:51:25;;;;;;;9.25;3.20;;;26.50;55.80;;;;;;4910223;29;20031;-72
2023/06/01 10:53:55;;;;;;;7.70;3.80;;;26.50;56.00;;;;;;4909164;29;20036;-72
2023/06/01 10:56:23;;;;;;;8.25;4.25;;;26.70;59.50;;;;;;4909844;29;20036;-72
2023/06/01 10:59:07;;;;;;;6.60;3.40;;;26.80;55.70;;;;;;4909312;29;20115;-73
2023/06/01 11:01:43;;;;;;;5.18;3.03;;;26.90;64.30;;;;;;4909755;29;20036;-72
2023/06/01 11:04:10;;;;;;;6.57;3.85;;;27.10;58.40;;;;;;4908787;29;20136;-70
2023/06/01 11:06:39;;;;;;;4.97;3.35;;;27.10;58.80;;;;;;4910026;29;20051;-71
2023/06/01 11:09:13;;;;;;;8.80;3.70;;;27.30;55.70;;;;;;4909201;29;20040;-71
2023/06/01 11:11:50;;;;;;;12.88;4.00;;;27.50;55.60;;;;;;4909801;29;20095;-73
2023/06/01 11:14:19;;;;;;;7.57;3.47;;;27.70;54.90;;;;;;4909809;29;20055;-72
2023/06/01 11:16:45;;;;;;;;;;;28.00;60.10;;;;;;4909361;29;20046;-72
2023/06/01 11:19:21;;;;;;;7.28;3.38;;;28.20;55.90;;;;;;4909647;29;19961;-71
2023/06/01 11:21:46;;;;;;;8.77;3.60;;;28.30;56.60;;;;;;4909048;29;20047;-72
2023/06/01 11:24:17;;;;;;;6.85;3.47;;;28.40;57.60;;;;;;4909079;29;20040;-70
2023/06/01 11:26:48;;;;;;;24.63;4.55;;;28.50;55.50;;;;;;4909195;29;20107;-70
2023/06/01 11:29:25;;;;;;;11.35;4.07;;;28.70;65.20;;;;;;4909025;29;20041;-74
2023/06/01 11:32:03;;;;;;;6.63;3.20;;;29.20;59.40;;;;;;4908791;29;20032;-71
2023/06/01 11:34:44;;;;;;;8.82;3.85;;;29.30;53.90;;;;;;4909368;29;20090;-71
2023/06/01 11:37:17;;;;;;;10.68;3.10;;;;;;;;;;4908995;29;20263;-73
2023/06/01 11:39:45;;;;;;;9.70;3.35;;;30.60;50.70;;;;;;4909350;29;20108;-75
2023/06/01 11:42:16;;;;;;;6.32;3.25;;;30.80;50.40;;;;;;4909239;29;20149;-75
2023/06/01 11:44:43;;;;;;;5.18;3.13;;;;;;;;;;4909151;29;20095;-76
2023/06/01 11:47:10;;;;;;;7.10;3.55;;;31.70;48.90;;;;;;4908902;29;20390;-73
2023/06/01 11:49:48;;;;;;;7.23;3.00;;;32.60;57.90;;;;;;4909190;29;20036;-74
2023/06/01 11:52:14;;;;;;;6.88;2.92;;;33.50;48.90;;;;;;4908878;29;20096;-74
2023/06/01 11:54:40;;;;;;;6.85;3.88;;;34.70;47.80;;;;;;4908874;29;20052;-75
2023/06/01 11:57:07;;;;;;;6.65;2.88;;;35.60;47.80;;;;;;4908335;29;20310;-74
2023/06/01 11:59:41;;;;;;;6.22;3.58;;;36.50;45.90;;;;;;4908969;29;20054;-75
2023/06/01 12:02:39;;;;;;;6.20;2.70;;;36.80;44.20;;;;;;4908204;29;20382;-73
2023/06/01 12:05:08;;;;;;;4.47;2.88;;;37.40;44.30;;;;;;4867029;29;20069;-75
2023/06/01 12:07:47;;;;;;;7.07;3.13;;;38.30;43.20;;;;;;4892038;29;20267;-74
2023/06/01 12:10:16;;;;;;;6.10;3.00;;;38.40;43.80;;;;;;4908833;29;20095;-74
2023/06/01 12:12:45;;;;;;;4.35;2.95;;;39.30;42.70;;;;;;4908640;29;20108;-73
2023/06/01 12:15:13;;;;;;;5.43;2.80;;;39.50;43.00;;;;;;4908564;29;20036;-74
2023/06/01 12:18:05;;;;;;;4.43;2.90;;;39.30;41.90;;;;;;4908496;29;20032;-73
2023/06/01 12:20:49;;;;;;;4.50;2.58;;;39.80;42.10;;;;;;4904827;29;20103;-73
2023/06/01 12:23:19;;;;;;;4.80;3.17;;;39.10;42.20;;;;;;4908506;29;20024;-75
2023/06/01 12:25:53;;;;;;;6.68;3.13;;;39.20;42.00;;;;;;4908503;29;20032;-75
2023/06/01 12:28:21;;;;;;;7.00;4.85;;;39.00;42.00;;;;;;4908141;29;20033;-75
2023/06/01 12:30:47;;;;;;;6.43;2.78;;;39.70;42.30;;;;;;4907791;29;20036;-74
2023/06/01 12:33:35;;;;;;;4.95;2.60;;;40.30;41.10;;;;;;4908387;29;20032;-73
2023/06/01 12:36:03;;;;;;;5.43;3.03;;;40.10;41.00;;;;;;4907789;29;20032;-74
2023/06/01 12:38:52;;;;;;;5.50;2.83;;;40.60;42.00;;;;;;4907947;29;20221;-74
2023/06/01 12:41:18;;;;;;;5.72;3.28;;;41.10;40.40;;;;;;4908255;29;20032;-72
2023/06/01 12:43:45;;;;;;;4.75;2.67;;;40.90;40.40;;;;;;4908186;29;20041;-73
2023/06/01 12:46:25;;;;;;;4.68;2.35;;;40.70;40.60;;;;;;4907354;29;20032;-72
2023/06/01 12:48:53;;;;;;;5.80;2.95;;;41.30;40.60;;;;;;4890913;29;20052;-73
2023/06/01 12:51:21;;;;;;;5.50;2.88;;;42.10;39.50;;;;;;4908076;29;20027;-73
2023/06/01 12:53:47;;;;;;;8.18;2.35;;;43.20;39.70;;;;;;4907811;29;20290;-73
2023/06/01 12:56:13;;;;;;;3.65;2.78;;;43.10;39.10;;;;;;4908208;29;20084;-73
2023/06/01 12:58:40;;;;;;;4.57;2.50;;;42.10;39.30;;;;;;4907996;29;20036;-73
2023/06/01 13:01:05;;;;;;;4.25;3.00;;;41.40;40.10;;;;;;4907387;29;20088;-74
2023/06/01 13:03:33;;;;;;;5.88;3.00;;;41.30;39.10;;;;;;4890896;29;20035;-74
2023/06/01 13:06:00;;;;;;;4.80;2.63;;;41.30;39.20;;;;;;4906983;29;20044;-73
2023/06/01 13:08:26;;;;;;;3.75;2.58;;;41.50;39.20;;;;;;4907537;29;20386;-76
2023/06/01 13:10:53;;;;;;;7.57;2.40;;;42.30;39.80;;;;;;4907147;29;20314;-74
2023/06/01 13:13:19;;;;;;;6.93;2.83;;;42.00;38.90;;;;;;4907526;29;20080;-72
2023/06/01 13:15:45;;;;;;;5.03;2.80;;;41.60;39.40;;;;;;4907499;29;20030;-72
2023/06/01 13:18:12;;;;;;;5.43;2.77;;;41.40;38.30;;;;;;4906910;29;20322;-73
2023/06/01 13:20:41;;;;;;;5.10;2.70;;;42.00;39.60;;;;;;4907709;29;20032;-73
2023/06/01 13:23:09;;;;;;;5.60;2.63;;;42.50;39.20;;;;;;4890417;29;20040;-71
2023/06/01 13:25:35;;;;;;;3.80;2.40;;;43.40;38.30;;;;;;4907441;29;20329;-74
2023/06/01 13:28:01;;;;;;;4.13;2.60;;;44.00;38.00;;;;;;4912998;29;20040;-74
2023/06/01 13:30:33;;;;;;;6.57;2.80;;;44.40;38.50;;;;;;4913713;29;20141;-73
2023/06/01 13:32:58;;;;;;;4.32;2.45;;;44.50;38.70;;;;;;4913349;29;20028;-72
2023/06/01 13:35:25;;;;;;;6.55;2.50;;;44.00;38.40;;;;;;4913911;29;20032;-75
2023/06/01 13:37:52;;;;;;;4.75;2.63;;;44.20;38.40;;;;;;4913211;29;20229;-75
2023/06/01 13:40:18;;;;;;;5.38;2.10;;;43.50;38.20;;;;;;4913621;29;20028;-74
2023/06/01 13:42:47;;;;;;;4.82;2.65;;;43.70;38.20;;;;;;4913813;29;20199;-73
2023/06/01 13:45:12;;;;;;;3.88;2.40;;;43.30;38.60;;;;;;4913009;29;20076;-73
2023/06/01 13:47:38;;;;;;;4.63;2.63;;;43.20;38.10;;;;;;4913669;29;20024;-76
2023/06/01 13:50:04;;;;;;;5.43;2.40;;;42.70;38.30;;;;;;4912855;29;20076;-73
2023/06/01 13:52:30;;;;;;;5.70;2.45;;;43.00;38.70;;;;;;4913837;29;20024;-73
2023/06/01 13:54:56;;;;;;;4.68;2.60;;;43.40;38.70;;;;;;4912928;29;20036;-73
2023/06/01 13:57:22;;;;;;;6.75;2.85;;;43.20;38.70;;;;;;4913612;29;20087;-73
2023/06/01 13:59:48;;;;;;;4.97;2.65;;;42.60;38.40;;;;;;4913723;29;20021;-72
2023/06/01 14:02:13;;;;;;;6.30;2.55;;;42.20;39.20;;;;;;4912947;29;20321;-74
2023/06/01 14:04:39;;;;;;;5.15;2.28;;;42.90;38.50;;;;;;4913406;29;20330;-72
2023/06/01 14:07:05;;;;;;;4.15;2.08;;;43.50;37.80;;;;;;4913037;29;20051;-75
2023/06/01 14:09:31;;;;;;;6.00;2.28;;;43.60;37.80;;;;;;4913694;29;20088;-74
2023/06/01 14:11:57;;;;;;;4.88;2.20;;;43.90;37.30;;;;;;4912916;29;20060;-72
2023/06/01 14:14:23;;;;;;;3.20;1.83;;;44.80;37.00;;;;;;4913856;29;20032;-73
2023/06/01 14:16:49;;;;;;;5.50;2.10;;;44.50;36.70;;;;;;4913678;29;20039;-74
2023/06/01 14:19:15;;;;;;;3.55;1.60;;;43.70;36.60;;;;;;4912963;29;20028;-72
2023/06/01 14:21:40;;;;;;;4.80;1.90;;;44.80;37.10;;;;;;4913374;29;20068;-74
2023/06/01 14:24:07;;;;;;;3.58;2.03;;;45.40;36.90;;;;;;4912786;29;20037;-74
2023/06/01 14:26:32;;;;;;;3.57;1.97;;;44.80;36.70;;;;;;4913647;29;20032;-74
2023/06/01 14:28:58;;;;;;;3.30;2.10;;;44.90;36.80;;;;;;4912925;29;20375;-73
2023/06/01 14:31:24;;;;;;;3.75;2.28;;;45.40;36.80;;;;;;4913234;29;20075;-73
2023/06/01 14:33:50;;;;;;;5.55;2.08;;;45.40;36.10;;;;;;4913519;29;20032;-75
2023/06/01 14:36:15;;;;;;;3.95;2.03;;;45.00;36.70;;;;;;4912633;29;20192;-74
2023/06/01 14:38:41;;;;;;;6.03;2.90;;;44.80;36.80;;;;;;4910068;29;20036;-75
2023/06/01 14:41:07;;;;;;;6.97;2.57;;;45.60;36.70;;;;;;4909955;29;20100;-73
2023/06/01 14:43:33;;;;;;;5.60;2.15;;;45.60;36.70;;;;;;4910414;29;20048;-74
2023/06/01 14:45:59;;;;;;;4.00;2.50;;;45.60;36.60;;;;;;4909912;29;20043;-74
2023/06/01 14:48:25;;;;;;;3.38;1.70;;;46.00;36.50;;;;;;4910384;29;20032;-72
2023/06/01 14:50:51;;;;;;;5.83;2.90;;;45.70;36.30;;;;;;4910318;29;20037;-73
2023/06/01 14:53:17;;;;;;;5.37;1.83;;;45.20;36.60;;;;;;4909715;29;20017;-73
2023/06/01 14:55:43;;;;;;;4.15;2.78;;;45.50;36.60;;;;;;4904241;29;20057;-74
2023/06/01 14:58:09;;;;;;;3.77;1.80;;;45.70;36.40;;;;;;4909666;29;20334;-73
2023/06/01 15:00:36;;;;;;;9.48;2.40;;;45.60;36.30;;;;;;4909792;29;20227;-72
2023/06/01 15:03:03;;;;;;;3.78;2.08;;;45.80;36.30;;;;;;4909470;29;20257;-73
2023/06/01 15:05:29;;;;;;;;;;;45.80;35.90;;;;;;4910158;29;20080;-76
2023/06/01 15:07:56;;;;;;;3.35;1.67;;;46.10;49.70;;;;;;4909827;29;19919;-73
2023/06/01 15:10:21;;;;;;;3.60;2.10;;;46.10;46.40;;;;;;4909699;29;20036;-73
2023/06/01 15:12:47;;;;;;;4.10;1.83;;;;;;;;;;4909938;29;20218;-73
2023/06/01 15:15:14;;;;;;;6.87;1.97;;;47.70;35.00;;;;;;4892776;29;20040;-73
2023/06/01 15:17:39;;;;;;;5.50;1.98;;;47.60;35.40;;;;;;4909582;29;20472;-73
2023/06/01 15:20:06;;;;;;;5.50;2.20;;;47.00;35.00;;;;;;4909060;29;20020;-73
2023/06/01 15:22:32;;;;;;;5.00;2.55;;;46.60;35.60;;;;;;4892884;29;20200;-74
2023/06/01 15:24:58;;;;;;;4.18;1.90;;;47.70;35.50;;;;;;4909093;29;20058;-73
2023/06/01 15:27:24;;;;;;;2.97;1.80;;;48.00;35.50;;;;;;4909566;29;20032;-74
2023/06/01 15:29:50;;;;;;;2.50;1.80;;;48.80;36.50;;;;;;4909273;29;20039;-73
2023/06/01 15:32:16;;;;;;;3.63;2.07;;;48.10;35.00;;;;;;4908940;29;20063;-73
2023/06/01 15:34:41;;;;;;;3.88;1.30;;;48.60;34.80;;;;;;4909376;29;20389;-73
2023/06/01 15:37:08;;;;;;;3.60;1.60;;;47.90;34.40;;;;;;4908891;29;20075;-71
2023/06/01 15:39:34;;;;;;;;;;;47.50;34.60;;;;;;4909971;29;20040;-73
2023/06/01 15:42:03;;;;;;;5.80;2.42;;;46.90;35.50;;;;;;4912325;29;19932;-71
2023/06/01 15:44:29;;;;;;;3.30;1.60;;;45.90;34.80;;;;;;4921799;29;20044;-73
2023/06/01 15:46:54;;;;;;;2.88;1.45;;;45.90;35.60;;;;;;4921218;29;20032;-72
2023/06/01 15:49:20;;;;;;;6.00;1.70;;;45.80;35.90;;;;;;4909888;29;20328;-71
2023/06/01 15:51:46;;;;;;;3.77;1.50;;;46.10;35.30;;;;;;4909013;29;20088;-74
2023/06/01 15:54:11;;;;;;;3.28;1.52;;;45.70;35.50;;;;;;4908427;29;20028;-73
2023/06/01 15:56:37;;;;;;;3.92;1.50;;;46.00;35.20;;;;;;4908726;29;20032;-73
2023/06/01 15:59:03;;;;;;;3.17;1.48;;;46.30;35.20;;;;;;4908237;29;20035;-72
2023/06/01 16:01:29;;;;;;;3.88;1.60;;;45.90;35.50;;;;;;4908682;29;20032;-72
2023/06/01 16:03:54;;;;;;;8.50;1.40;;;45.90;35.80;;;;;;4908312;29;20056;-72
2023/06/01 16:06:20;;;;;;;3.90;1.30;;;45.90;35.10;;;;;;4907971;29;20037;-74
2023/06/01 16:08:46;;;;;;;3.05;1.45;;;45.90;35.90;;;;;;4908493;29;20032;-73
2023/06/01 16:11:11;;;;;;;6.32;1.67;;;45.70;35.60;;;;;;4907070;29;20048;-74
2023/06/01 16:13:37;;;;;;;4.38;1.40;;;46.50;35.40;;;;;;4908712;29;20255;-73
2023/06/01 16:16:03;;;;;;;3.72;1.20;;;46.50;35.30;;;;;;4908010;29;20024;-73
2023/06/01 16:18:29;;;;;;;3.53;1.60;;;47.20;34.70;;;;;;4908361;29;20055;-73
2023/06/01 16:20:54;;;;;;;5.03;1.40;;;47.40;34.50;;;;;;4907456;29;20059;-73
2023/06/01 16:23:20;;;;;;;3.00;1.33;;;47.00;34.60;;;;;;4907677;29;20215;-73
2023/06/01 16:25:46;;;;;;;2.77;1.47;;;46.80;34.60;;;;;;4908485;29;20084;-73
2023/06/01 16:28:11;;;;;;;2.75;1.40;;;46.70;34.70;;;;;;4907900;29;20044;-74
2023/06/01 16:30:37;;;;;;;3.47;1.38;;;46.50;34.80;;;;;;4908576;29;20044;-72
2023/06/01 16:33:03;;;;;;;3.50;1.43;;;46.50;34.40;;;;;;4906583;29;20028;-71
2023/06/01 16:35:29;;;;;;;4.17;1.30;;;46.20;34.50;;;;;;4908412;29;20044;-74
2023/06/01 16:37:55;;;;;;;4.90;1.17;;;46.50;34.70;;;;;;4908055;29;20059;-73
2023/06/01 16:40:20;;;;;;;3.60;1.20;;;46.70;34.00;;;;;;4907472;29;20060;-72
2023/06/01 16:42:46;;;;;;;3.60;1.33;;;46.70;34.20;;;;;;4908305;29;20222;-74
2023/06/01 16:45:12;;;;;;;3.92;2.10;;;45.70;34.40;;;;;;4907646;29;20032;-74
2023/06/01 16:47:38;;;;;;;2.95;1.65;;;45.90;34.40;;;;;;4908321;29;20036;-72
2023/06/01 16:50:04;;;;;;;2.70;1.00;;;45.20;34.40;;;;;;4907580;29;20325;-71
2023/06/01 16:52:30;;;;;;;5.28;2.28;;;43.20;35.10;;;;;;4907819;29;20033;-73
2023/06/01 16:54:56;;;;;;;3.30;1.52;;;41.90;35.70;;;;;;4908045;29;20037;-70
2023/06/01 16:57:28;;;;;;;4.75;1.70;;;41.70;35.80;;;;;;4907141;29;20040;-72
2023/06/01 16:59:55;;;;;;;4.10;1.60;;;41.90;35.30;;;;;;4891277;29;20024;-73
2023/06/01 17:02:21;;;;;;;3.88;2.55;;;41.90;35.20;;;;;;4906561;29;20326;-72
2023/06/01 17:04:47;;;;;;;2.93;1.70;;;42.80;35.40;;;;;;4907740;29;20107;-73
2023/06/01 17:07:13;;;;;;;4.30;2.30;;;43.00;35.10;;;;;;4906990;29;20375;-72
2023/06/01 17:09:38;;;;;;;2.90;1.63;;;43.20;34.90;;;;;;4907620;29;20032;-72
2023/06/01 17:12:05;;;;;;;5.38;3.72;;;43.70;35.20;;;;;;4906947;29;20041;-74
2023/06/01 17:14:31;;;;;;;6.70;3.58;;;43.70;34.90;;;;;;4907800;29;20028;-73
2023/06/01 17:16:57;;;;;;;4.00;1.58;;;44.10;34.50;;;;;;4907809;29;20366;-72
2023/06/01 17:19:22;;;;;;;3.22;1.38;;;43.50;34.00;;;;;;4906986;29;20041;-73
2023/06/01 17:21:48;;;;;;;3.10;1.40;;;43.70;34.10;;;;;;4907413;29;20059;-73
2023/06/01 17:24:14;;;;;;;3.17;1.40;;;43.20;34.30;;;;;;4907172;29;20067;-74
2023/06/01 17:26:40;;;;;;;3.45;1.25;;;42.70;34.50;;;;;;4907369;29;20020;-73
2023/06/01 17:29:05;;;;;;;4.47;2.10;;;42.40;35.10;;;;;;4907072;29;20029;-74
2023/06/01 17:31:31;;;;;;;4.57;1.15;;;42.40;35.10;;;;;;4907411;29;20029;-73
2023/06/01 17:33:57;;;;;;;2.70;1.20;;;42.60;34.90;;;;;;4907573;29;20028;-73
2023/06/01 17:36:22;;;;;;;2.88;1.02;;;42.10;35.60;;;;;;4907032;29;20052;-75
2023/06/01 17:38:48;;;;;;;2.63;1.15;;;41.90;35.30;;;;;;4890706;29;20043;-73
2023/06/01 17:41:14;;;;;;;2.58;1.23;;;42.00;35.40;;;;;;4906948;29;20059;-72
2023/06/01 17:43:40;;;;;;;2.83;0.93;;;41.80;35.70;;;;;;4907556;29;20032;-73
2023/06/01 17:46:07;;;;;;;2.85;1.08;;;41.40;35.60;;;;;;4906651;29;20024;-73
2023/06/01 17:48:34;;;;;;;4.68;1.20;;;40.60;36.10;;;;;;4907124;29;20199;-74
2023/06/01 17:50:59;;;;;;;3.00;1.10;;;40.50;36.70;;;;;;4907492;29;20216;-72
2023/06/01 17:53:25;;;;;;;4.50;1.50;;;40.40;37.00;;;;;;4906566;29;20300;-74